Melbourne, FL (32934)

10:51 PM EDT on August 31, 2015 (GMT -0400)
Lakeglen Drive | | Change Station
CLOSE
Current Station
Personal Weather Station
Location: Melbourne, FL
Elevation: 46 ft
Nearby Weather Stations

Elev 46 ft 28.15 °N, 80.69 °W | Updated 1 second ago

Clear
Clear
77.2 °F
Feels Like 78 °F
N
0.0
Wind Variable Wind from SSW
Gusts 0.0 mph

Today
High -- | Low -- °F
--% Chance of Precip.
Yesterday
High -- | Low -- °F
Precip. -- in
7:00 AM 7:45 PM
Waning Gibbous, 92% visible
Pressure 30.06 in
Visibility 10.0 miles
Clouds Clear
Heat Index 78 °F
Dew Point 53 °F
Humidity 43%
Rainfall 0.02 in
Snow Depth Not available.
UV 0.0 out of 12
Pollen 1.60 out of 12
Air Quality Not available.
Flu Activity Not available.
METAR KMLB 010153Z 16004KT 10SM CLR 25/23 A3006 RMK AO2 SLP180 T02500233
Pressure 30.06 in
Visibility 10.0 miles
Clouds Clear
Heat Index 78 °F
Dew Point 53 °F
Humidity 43%
Rainfall 0.02 in
Snow Depth Not available.
UV 0.0 out of 12
Pollen 1.60 out of 12
Air Quality Not available.
Flu Activity Not available.
METAR KMLB 010153Z 16004KT 10SM CLR 25/23 A3006 RMK AO2 SLP180 T02500233
Nowcast | as of 10:06 PM EDT on August 31, 2015

Patches of lingering rain over Volusia County will gradually end before midnight. Elsewhere across east-central Florida...there will be a few small patches of light rain or sprinkles through about 11 PM...otherwise clouds will gradually decrease through the early morning hours of Tuesday. Additional details...including graphics are available online at: http://www.Srh.NOAA.Gov/mlb/blog.Php

×

10-Day Weather Forecast

×

Almanac

Astronomy

Aug. 31, 2015 Rise Set
Actual Time
Civil Twilight
Nautical Twilight
Astronomical Twilight
Moon
Length of Visible Light
Length of Day
Tomorrow will be .
, % of the Moon is Illuminated

Today's Extremes

State Highs State Lows

Community

WunderPhotos

Upload Photos

1,851,459 photos uploaded!

WunderBlogs® & News

Nearby

Air Quality

  Air Quality AQ Index Pollutant
Not available.

Snow Depth

Station Depth Elevation

Earthquake Activity

City Distance Mag. Time & Date
Minimum magnitude displayed is 2.5.

Coastal Water Temperatures

Place Temperature

Stations

Nearby Weather Stations

Station Location Temp. Windchill Dew Point Humidity Wind Precip. Elev Updated Type